To NAV CANADA Home Page Login to a new session Search on AWWS site Feedback and Comments Disclaimer Vers la page française équivalente Tips FAQ What's new on the site To the Forecasts and Observations / NOTAM section To "File a Flight Plan" website Publications and other links Update of the User's profile FIC Telephone Numbers My Weather Data Folder Route Weather Data Regional Weather Data Local Weather Data To the Forecasts and Observations / NOTAM section
Request Generated 10/17/2017 at 01:43:16 UTC . Weather information available at that time is displayed.

METAR/TAF

NORTH BATTLEFORD/SK    (show WxCam)

METAR CYQW 170100Z AUTO 10004KT 9SM SCT190 10/M03 A2973 RMK SLP085=
METAR CYQW 170000Z AUTO 00000KT 9SM CLR 13/M03 A2975 RMK SLP091
DENSITY ALT 2100FT=
METAR CYQW 162300Z AUTO 21007KT 9SM CLR 16/M03 A2977 RMK SLP098
DENSITY ALT 2400FT=

TAF CYQW 162338Z 1700/1712 21008KT P6SM SCT120 BKN250
FM170400 12008KT P6SM BKN120
BECMG 1707/1709 24008KT
RMK FCST BASED ON AUTO OBS. NXT FCST BY 170600Z=
Your time UTC time
Weather data provided by Environment Canada and NAV CANADA